createdAt,value
2023-08-17T00:11:06.840Z,762
2023-08-17T00:31:06.798Z,777
2023-08-17T00:51:06.942Z,676
2023-08-17T01:11:06.901Z,492
2023-08-17T01:31:06.928Z,482
2023-08-17T01:51:06.880Z,472
2023-08-17T02:11:06.810Z,472
2023-08-17T02:31:06.865Z,473
2023-08-17T02:51:06.257Z,488
2023-08-17T03:11:06.740Z,515
2023-08-17T03:31:06.736Z,537
2023-08-17T03:51:06.732Z,553
2023-08-17T04:11:06.651Z,576
2023-08-17T04:31:06.619Z,579
2023-08-17T04:51:06.597Z,577
2023-08-17T05:11:06.087Z,598
2023-08-17T05:31:06.065Z,602
2023-08-17T05:51:06.545Z,602
2023-08-17T06:11:06.501Z,589
2023-08-17T06:31:06.292Z,584
2023-08-17T06:51:06.426Z,606
2023-08-17T07:11:06.405Z,642
2023-08-17T07:31:06.376Z,562
2023-08-17T07:51:06.338Z,544
2023-08-17T08:11:06.323Z,548
2023-08-17T08:31:06.279Z,536
2023-08-17T08:51:06.259Z,534
2023-08-17T09:11:06.357Z,519
2023-08-17T09:31:06.027Z,506
2023-08-17T09:51:05.685Z,514
2023-08-17T10:11:06.242Z,498
2023-08-17T10:51:06.080Z,486
2023-08-17T11:11:06.036Z,482
2023-08-17T11:31:06.143Z,480
2023-08-17T11:51:05.896Z,476
2023-08-17T12:11:05.969Z,471
2023-08-17T12:31:05.952Z,467
2023-08-17T12:51:05.913Z,463
2023-08-17T13:31:22.260Z,465
2023-08-17T13:51:05.959Z,456
2023-08-17T14:11:05.794Z,461
2023-08-17T14:31:05.728Z,452
2023-08-17T14:51:05.691Z,465
2023-08-17T15:11:05.698Z,452
2023-08-17T15:31:05.194Z,475
2023-08-17T15:51:05.413Z,464
2023-08-17T16:11:05.582Z,455
2023-08-17T16:31:05.885Z,449
2023-08-17T16:51:05.691Z,450
2023-08-17T17:11:05.516Z,458
2023-08-17T18:31:05.294Z,449
2023-08-17T19:31:12.308Z,439
2023-08-17T19:51:05.276Z,456
2023-08-17T20:11:05.236Z,446
2023-08-17T20:31:05.352Z,436
2023-08-17T20:51:11.670Z,448
2023-08-17T21:11:12.132Z,441
2023-08-17T21:51:04.649Z,438
2023-08-17T22:11:05.043Z,430
2023-08-17T22:31:05.059Z,442
2023-08-17T22:51:05.013Z,431
2023-08-17T23:11:18.988Z,440
2023-08-17T23:31:04.928Z,424
2023-08-17T23:51:04.904Z,421
